Terminal Aerodrome Forecast
Issued by NWS

Home | Current Version | Previous Version | Text Only | Print | Product List | Glossary Off
Versions: 1 2 3 4 5 6 7 8 9 10 11 12 13 14 15 16 17 18 19 20 21 22 23 24

806
FTUS43 KABR 200527
TAFPIR
TAF
KPIR 200527Z 2006/2106 08009KT P6SM OVC070
     FM201400 02009KT P6SM VCSH OVC025
     FM201600 03009KT P6SM -RA OVC020
     FM202100 03012KT P6SM OVC020
     FM210100 01007KT P6SM OVC035=

USA.gov is the U.S. government's official web portal to all federal, state and local government web resources and services.